This is the latest recevied weather packets stored in our database for station/object KJ5FA-10. If no packets are shown the sender has not sent any weather packets the latest 1 day(s).
| Time | Temp. | Humidity | Pressure | Rain* | Wind** | Luminosity | Snow |
|---|---|---|---|---|---|---|---|
| 1778038768 | 20.56° C | 96% | 1007.2 hPa | 0 mm | 0.45 m/s, 40° | - | - |
| 1778037867 | 21.11° C | 96% | 1007.4 hPa | 0 mm | 0.45 m/s, 73° | - | - |
| 1778036967 | 21.11° C | 96% | 1007.6 hPa | 0 mm | 0 m/s | - | - |
| 1778036067 | 21.11° C | 95% | 1007.2 hPa | 0 mm | 0.45 m/s, 66° | - | - |
| 1778035168 | 21.11° C | 95% | 1007.5 hPa | 0 mm | 0 m/s | - | - |
| 1778034267 | 21.11° C | 95% | 1007.2 hPa | 0 mm | 0 m/s | - | - |
| 1778033367 | 21.67° C | 94% | 1007.3 hPa | 0 mm | 0 m/s | - | - |
| 1778032468 | 21.67° C | 94% | 1007.1 hPa | 0 mm | 0 m/s | - | - |
| 1778031568 | 21.67° C | 93% | 1006.8 hPa | 0 mm | 0 m/s | - | - |
| 1778030668 | 21.67° C | 92% | 1006.9 hPa | 0 mm | 0 m/s | - | - |
| 1778029768 | 22.22° C | 92% | 1006.7 hPa | 0 mm | 0 m/s | - | - |
| 1778028868 | 22.22° C | 91% | 1006.5 hPa | 0 mm | 0.45 m/s, 84° | - | - |
| 1778027967 | 22.22° C | 90% | 1006.5 hPa | 0 mm | 0.45 m/s, 61° | - | - |
| 1778027068 | 22.22° C | 90% | 1006.5 hPa | 0 mm | 0 m/s | - | - |
| 1778026168 | 22.78° C | 89% | 1006.2 hPa | 0 mm | 0.89 m/s, 118° | - | - |
| 1778025269 | 22.78° C | 89% | 1006.4 hPa | 0 mm | 0 m/s | - | - |
| 1778024367 | 22.78° C | 89% | 1006.3 hPa | 0 mm | 0.45 m/s, 101° | - | - |
| 1778023467 | 22.78° C | 88% | 1006.5 hPa | 0 mm | 0.45 m/s, 91° | - | - |
| 1778022568 | 23.33° C | 87% | 1006.1 hPa | 0 mm | 0 m/s | - | - |
| 1778021668 | 23.33° C | 87% | 1006.2 hPa | 0 mm | 1.34 m/s, 96° | - | - |
| 1778020768 | 22.78° C | 87% | 1006.6 hPa | 0 mm | 0.45 m/s, 119° | - | - |
| 1778019868 | 22.78° C | 88% | 1006.6 hPa | 0 mm | 0.45 m/s, 104° | - | - |
| 1778018968 | 22.78° C | 88% | 1006.7 hPa | 0 mm | 0.45 m/s, 95° | - | - |
| 1778018069 | 22.22° C | 89% | 1006.4 hPa | 0 mm | 0.45 m/s, 62° | - | - |
| 1778017168 | 22.22° C | 89% | 1006.8 hPa | 0 mm | 0.45 m/s, 99° | - | - |
* Rain latest hour (hover to see other rain measurements)
** Current wind speed in m/s (hover to see current wind gust speed)